createdAt,value
2022-09-28T00:01:55.387Z,86.34
2022-09-28T00:06:55.761Z,85.93
2022-09-28T00:11:56.537Z,86.14
2022-09-28T00:16:57.260Z,86.34
2022-09-28T00:21:58.025Z,86.24
2022-09-28T00:26:58.750Z,88.18
2022-09-28T00:31:59.678Z,86.75
2022-09-28T00:37:00.037Z,86.75
2022-09-28T00:42:00.796Z,88.39
2022-09-28T00:47:01.520Z,87.26
2022-09-28T00:52:02.289Z,88.29
2022-09-28T00:57:03.042Z,87.71
2022-09-28T01:02:03.793Z,86.79
2022-09-28T01:07:04.550Z,88.12
2022-09-28T01:12:05.293Z,87.20
2022-09-28T01:17:06.045Z,88.02
2022-09-28T01:22:06.827Z,87.61
2022-09-28T01:27:07.560Z,88.33
2022-09-28T01:32:08.311Z,87.10
2022-09-28T01:37:09.111Z,86.58
2022-09-28T01:42:09.872Z,87.61
2022-09-28T01:47:10.614Z,87.82
2022-09-28T01:52:11.397Z,87.51
2022-09-28T01:57:12.148Z,87.92
2022-09-28T02:02:12.935Z,87.10
2022-09-28T02:07:13.746Z,87.61
2022-09-28T02:12:14.500Z,86.79
2022-09-28T02:17:15.231Z,86.48
2022-09-28T02:22:15.997Z,87.41
2022-09-28T02:27:16.711Z,85.77
2022-09-28T02:32:17.468Z,85.87
2022-09-28T02:37:18.223Z,86.73
2022-09-28T02:42:18.934Z,87.04
2022-09-28T02:47:19.698Z,86.32
2022-09-28T02:52:20.446Z,87.20
2022-09-28T02:57:21.176Z,87.45
2022-09-28T03:02:21.952Z,87.55
2022-09-28T03:07:22.682Z,87.96
2022-09-28T03:12:23.410Z,88.47
2022-09-28T03:17:24.132Z,88.88
2022-09-28T03:22:24.865Z,88.82
2022-09-28T03:27:25.594Z,87.79
2022-09-28T03:32:26.332Z,88.51
2022-09-28T03:37:27.054Z,90.20
2022-09-28T03:42:27.809Z,90.30
2022-09-28T03:47:28.528Z,90.40
2022-09-28T03:52:29.264Z,89.84
2022-09-28T03:57:29.995Z,90.36
2022-09-28T04:02:30.860Z,89.43
2022-09-28T04:07:31.591Z,89.99
2022-09-28T04:12:39.388Z,90.71
2022-09-28T04:17:36.522Z,90.95
2022-09-28T04:22:34.944Z,91.06
2022-09-28T04:27:34.452Z,91.16
2022-09-28T04:32:35.264Z,90.65
2022-09-28T04:37:35.968Z,91.16
2022-09-28T04:42:36.835Z,90.81
2022-09-28T04:47:37.525Z,90.30
2022-09-28T04:52:38.234Z,90.09
2022-09-28T04:57:38.981Z,90.81
2022-09-28T05:02:39.771Z,90.71
2022-09-28T05:07:40.537Z,90.20
2022-09-28T05:12:41.245Z,89.95
2022-09-28T05:17:41.995Z,89.58
2022-09-28T05:22:42.674Z,90.30
2022-09-28T05:27:43.403Z,90.71
2022-09-28T05:32:44.140Z,90.20
2022-09-28T05:37:44.877Z,90.30
2022-09-28T05:42:45.657Z,89.64
2022-09-28T05:47:46.352Z,89.84
2022-09-28T05:52:47.115Z,90.05
2022-09-28T05:57:47.844Z,89.43
2022-09-28T06:02:48.619Z,89.29
2022-09-28T06:07:49.377Z,88.37
2022-09-28T06:12:50.098Z,87.82
2022-09-28T06:17:50.824Z,87.10
2022-09-28T06:22:51.503Z,86.96
2022-09-28T06:27:52.219Z,85.83
2022-09-28T06:32:52.897Z,86.85
2022-09-28T06:37:53.627Z,87.06
2022-09-28T06:42:54.336Z,85.69
2022-09-28T06:47:55.055Z,84.87
2022-09-28T06:52:55.735Z,84.56
2022-09-28T06:57:56.454Z,84.52
2022-09-28T07:02:57.157Z,83.15
2022-09-28T07:07:57.854Z,82.64
2022-09-28T07:12:58.564Z,82.54
2022-09-28T07:18:02.670Z,82.43
2022-09-28T07:23:11.150Z,81.99
2022-09-28T07:28:01.476Z,82.09
2022-09-28T07:33:01.139Z,81.74
2022-09-28T07:38:01.885Z,81.74
2022-09-28T07:43:02.520Z,81.54
2022-09-28T07:48:03.305Z,81.99
2022-09-28T07:53:04.065Z,79.91
2022-09-28T07:58:04.708Z,79.43
2022-09-28T08:03:05.442Z,77.65
2022-09-28T08:08:06.230Z,77.86
2022-09-28T08:13:08.691Z,75.78
2022-09-28T08:18:07.762Z,76.09
2022-09-28T08:23:08.439Z,75.57
2022-09-28T08:28:09.088Z,75.13
2022-09-28T08:33:09.776Z,74.86
2022-09-28T08:38:10.465Z,75.23
2022-09-28T08:43:11.129Z,73.77
2022-09-28T08:48:11.817Z,73.67
2022-09-28T08:53:12.491Z,73.40
2022-09-28T08:58:13.179Z,73.30
2022-09-28T09:03:13.858Z,71.84
2022-09-28T09:08:14.557Z,73.50
2022-09-28T09:13:15.224Z,72.34
2022-09-28T09:18:19.766Z,72.14
2022-09-28T09:23:16.744Z,71.63
2022-09-28T09:28:17.412Z,69.60
2022-09-28T09:33:18.089Z,65.97
2022-09-28T09:38:18.792Z,64.12
2022-09-28T09:43:19.488Z,66.58
2022-09-28T09:48:20.162Z,63.30
2022-09-28T09:53:20.858Z,63.64
2022-09-28T09:58:21.550Z,65.06
2022-09-28T10:03:22.387Z,64.42
2022-09-28T10:08:23.054Z,63.17
2022-09-28T10:13:23.744Z,63.28
2022-09-28T10:18:24.431Z,63.00
2022-09-28T10:23:25.108Z,62.90
2022-09-28T10:28:25.773Z,63.17
2022-09-28T10:33:26.472Z,61.44
2022-09-28T10:38:27.153Z,60.18
2022-09-28T10:43:27.850Z,61.74
2022-09-28T10:48:28.537Z,63.16
2022-09-28T10:53:29.212Z,62.85
2022-09-28T10:58:36.932Z,62.51
2022-09-28T11:03:30.626Z,63.59
2022-09-28T11:08:31.285Z,62.75
2022-09-28T11:13:31.929Z,62.08
2022-09-28T11:18:32.672Z,59.95
2022-09-28T11:23:33.320Z,58.47
2022-09-28T11:28:33.969Z,55.47
2022-09-28T11:33:34.641Z,57.73
2022-09-28T11:38:35.295Z,57.04
2022-09-28T11:43:35.987Z,57.32
2022-09-28T11:48:36.672Z,60.47
2022-09-28T11:53:37.353Z,61.78
2022-09-28T11:58:38.026Z,61.57
2022-09-28T12:03:38.811Z,63.13
2022-09-28T12:08:39.554Z,61.63
2022-09-28T12:13:40.245Z,62.04
2022-09-28T12:18:41.787Z,63.26
2022-09-28T12:23:41.426Z,61.74
2022-09-28T12:28:42.139Z,61.76
2022-09-28T12:33:42.818Z,62.68
2022-09-28T12:38:45.981Z,62.65
2022-09-28T12:43:44.263Z,61.20
2022-09-28T12:48:52.931Z,60.85
2022-09-28T12:53:46.470Z,60.24
2022-09-28T12:58:46.163Z,61.33
2022-09-28T13:03:46.808Z,60.21
2022-09-28T13:08:47.479Z,60.34
2022-09-28T13:13:48.175Z,61.15
2022-09-28T13:18:48.885Z,61.22
2022-09-28T13:23:49.526Z,61.02
2022-09-28T13:28:50.276Z,60.38
2022-09-28T13:33:50.962Z,60.79
2022-09-28T13:38:51.633Z,60.41
2022-09-28T13:43:52.288Z,59.67
2022-09-28T13:48:53.057Z,60.59
2022-09-28T13:53:53.883Z,59.98
2022-09-28T13:58:54.582Z,59.80
2022-09-28T14:03:55.306Z,60.37
2022-09-28T14:08:56.042Z,61.93
2022-09-28T14:13:56.697Z,61.72
2022-09-28T14:18:57.421Z,62.33
2022-09-28T14:23:59.825Z,61.82
2022-09-28T14:28:58.724Z,62.26
2022-09-28T14:33:59.417Z,62.26
2022-09-28T14:39:00.096Z,62.36
2022-09-28T14:44:00.817Z,62.87
2022-09-28T14:49:01.549Z,62.13
2022-09-28T14:54:02.222Z,62.54
2022-09-28T14:59:02.947Z,60.91
2022-09-28T15:04:03.652Z,61.21
2022-09-28T15:09:04.388Z,61.38
2022-09-28T15:14:05.062Z,62.23
2022-09-28T15:19:05.786Z,63.35
2022-09-28T15:24:06.510Z,62.94
2022-09-28T15:29:07.143Z,63.22
2022-09-28T15:34:07.888Z,62.71
2022-09-28T15:39:08.590Z,62.81
2022-09-28T15:44:09.247Z,61.90
2022-09-28T15:49:09.973Z,61.36
2022-09-28T15:54:10.686Z,61.25
2022-09-28T15:59:11.478Z,60.47
2022-09-28T16:04:12.179Z,60.91
2022-09-28T16:09:12.911Z,63.18
2022-09-28T16:14:13.665Z,65.83
2022-09-28T16:19:14.309Z,67.18
2022-09-28T16:24:14.995Z,68.40
2022-09-28T16:29:15.701Z,69.76
2022-09-28T16:34:16.320Z,70.89
2022-09-28T16:39:17.168Z,71.80
2022-09-28T16:44:17.896Z,72.96
2022-09-28T16:49:18.785Z,74.08
2022-09-28T16:54:19.111Z,74.52
2022-09-28T16:59:19.914Z,75.13
2022-09-28T17:04:20.604Z,75.99
2022-09-28T17:09:21.298Z,77.01
2022-09-28T17:14:21.961Z,77.01
2022-09-28T17:19:22.711Z,77.66
2022-09-28T17:24:23.642Z,78.07
2022-09-28T17:29:24.357Z,78.78
2022-09-28T17:34:25.109Z,78.78
2022-09-28T17:39:25.914Z,79.43
2022-09-28T17:44:26.639Z,79.43
2022-09-28T17:49:27.394Z,79.64
2022-09-28T17:54:28.202Z,79.64
2022-09-28T17:59:28.880Z,80.08
2022-09-28T18:04:50.665Z,80.08
2022-09-28T18:09:31.242Z,79.98
2022-09-28T18:14:30.943Z,80.08
2022-09-28T18:19:32.495Z,79.47
2022-09-28T18:24:32.445Z,79.16
2022-09-28T18:29:33.737Z,79.27
2022-09-28T18:34:33.963Z,79.68
2022-09-28T18:39:34.694Z,79.68
2022-09-28T18:44:35.462Z,79.78
2022-09-28T18:49:36.184Z,80.08
2022-09-28T18:54:36.919Z,80.29
2022-09-28T18:59:37.643Z,80.74
2022-09-28T19:04:38.386Z,80.94
2022-09-28T19:09:40.166Z,82.27
2022-09-28T19:14:39.999Z,83.09
2022-09-28T19:19:40.872Z,83.29
2022-09-28T19:24:41.594Z,83.29
2022-09-28T19:29:42.325Z,83.54
2022-09-28T19:34:43.093Z,85.07
2022-09-28T19:39:43.889Z,85.38
2022-09-28T19:44:44.605Z,84.72
2022-09-28T19:49:45.355Z,84.87
2022-09-28T19:54:46.170Z,84.87
2022-09-28T19:59:52.031Z,85.48
2022-09-28T20:04:48.558Z,85.93
2022-09-28T20:09:48.245Z,86.04
2022-09-28T20:14:48.961Z,86.34
2022-09-28T20:19:49.785Z,86.55
2022-09-28T20:24:50.532Z,87.61
2022-09-28T20:29:51.258Z,86.99
2022-09-28T20:34:52.033Z,86.96
2022-09-28T20:39:52.808Z,86.04
2022-09-28T20:44:54.583Z,85.17
2022-09-28T20:49:54.297Z,84.56
2022-09-28T20:54:55.040Z,84.46
2022-09-28T20:59:55.777Z,84.56
2022-09-28T21:04:56.511Z,84.36
2022-09-28T21:09:57.251Z,84.77
2022-09-28T21:15:00.252Z,85.07
2022-09-28T21:19:59.639Z,84.97
2022-09-28T21:24:59.374Z,85.17
2022-09-28T21:30:00.151Z,85.07
2022-09-28T21:35:00.878Z,85.28
2022-09-28T21:40:01.615Z,85.17
2022-09-28T21:45:02.340Z,85.07
2022-09-28T21:50:03.078Z,85.17
2022-09-28T21:55:03.814Z,85.07
2022-09-28T22:00:04.568Z,85.38
2022-09-28T22:05:05.433Z,85.07
2022-09-28T22:10:06.215Z,85.48
2022-09-28T22:15:06.943Z,85.69
2022-09-28T22:20:07.769Z,85.99
2022-09-28T22:25:08.539Z,86.24
2022-09-28T22:30:09.274Z,86.10
2022-09-28T22:35:10.026Z,86.75
2022-09-28T22:40:10.756Z,86.65
2022-09-28T22:45:11.503Z,86.44
2022-09-28T22:50:12.228Z,86.44
2022-09-28T22:55:12.950Z,85.93
2022-09-28T23:00:13.727Z,85.93
2022-09-28T23:05:14.563Z,86.04
2022-09-28T23:10:15.295Z,86.14
2022-09-28T23:15:16.054Z,86.04
2022-09-28T23:20:16.804Z,86.24
2022-09-28T23:25:17.517Z,85.93
2022-09-28T23:30:18.262Z,86.04
2022-09-28T23:35:19.069Z,86.04
2022-09-28T23:40:19.851Z,86.24
2022-09-28T23:45:20.599Z,86.24
2022-09-28T23:50:21.347Z,86.58
2022-09-28T23:55:22.063Z,87.30
